createdAt,value
2022-07-28T00:01:31.538Z,13.60
2022-07-28T00:04:02.108Z,13.50
2022-07-28T00:06:30.784Z,13.40
2022-07-28T00:08:59.497Z,13.50
2022-07-28T00:11:28.115Z,13.50
2022-07-28T00:13:57.105Z,13.60
2022-07-28T00:16:25.971Z,13.60
2022-07-28T00:18:54.661Z,13.50
2022-07-28T00:21:25.018Z,13.60
2022-07-28T00:23:53.618Z,13.60
2022-07-28T00:26:23.570Z,13.70
2022-07-28T00:28:52.372Z,13.70
2022-07-28T00:31:21.084Z,13.70
2022-07-28T00:33:49.775Z,13.70
2022-07-28T00:36:18.644Z,13.70
2022-07-28T00:38:54.653Z,13.60
2022-07-28T00:41:24.753Z,13.70
2022-07-28T00:43:54.065Z,13.60
2022-07-28T00:46:24.079Z,13.50
2022-07-28T00:48:55.017Z,13.40
2022-07-28T00:51:25.727Z,13.30
2022-07-28T00:53:56.785Z,13.40
2022-07-28T00:56:25.841Z,13.40
2022-07-28T00:58:54.783Z,13.30
2022-07-28T01:01:24.703Z,13.20
2022-07-28T01:03:56.101Z,13.20
2022-07-28T01:06:41.479Z,13.20
2022-07-28T01:09:28.824Z,13.10
2022-07-28T01:12:06.205Z,13.10
2022-07-28T01:14:39.427Z,13.00
2022-07-28T01:17:15.485Z,13.10
2022-07-28T01:19:51.715Z,13.10
2022-07-28T01:22:26.011Z,13.00
2022-07-28T01:25:04.577Z,12.90
2022-07-28T01:27:54.901Z,13.00
2022-07-28T01:30:40.471Z,12.90
2022-07-28T01:33:24.995Z,12.80
2022-07-28T01:35:58.407Z,12.90
2022-07-28T01:38:28.246Z,12.80
2022-07-28T01:40:59.101Z,12.80
2022-07-28T01:43:30.016Z,12.80
2022-07-28T01:46:02.472Z,12.70
2022-07-28T01:48:32.416Z,12.70
2022-07-28T01:51:02.678Z,12.70
2022-07-28T01:53:37.424Z,12.60
2022-07-28T01:56:08.590Z,12.60
2022-07-28T01:58:38.946Z,12.70
2022-07-28T02:01:10.715Z,12.70
2022-07-28T02:03:42.559Z,12.60
2022-07-28T02:06:13.410Z,12.50
2022-07-28T02:08:44.051Z,12.40
2022-07-28T02:11:30.030Z,12.40
2022-07-28T02:14:00.197Z,12.50
2022-07-28T02:16:31.425Z,12.40
2022-07-28T02:19:01.853Z,12.20
2022-07-28T02:21:32.451Z,12.20
2022-07-28T02:24:07.088Z,12.10
2022-07-28T02:26:38.543Z,12.00
2022-07-28T02:29:33.516Z,11.90
2022-07-28T02:32:24.121Z,11.90
2022-07-28T02:35:02.008Z,11.80
2022-07-28T02:37:37.265Z,11.70
2022-07-28T02:40:07.577Z,11.80
2022-07-28T02:42:37.822Z,11.80
2022-07-28T02:45:11.700Z,11.90
2022-07-28T02:47:47.070Z,11.90
2022-07-28T02:50:20.598Z,11.90
2022-07-28T02:52:50.641Z,12.00
2022-07-28T02:55:19.869Z,12.00
2022-07-28T02:57:56.267Z,12.00
2022-07-28T03:00:26.313Z,12.00
2022-07-28T03:02:57.497Z,12.10
2022-07-28T03:05:26.566Z,12.10
2022-07-28T03:07:57.783Z,12.00
2022-07-28T03:10:32.798Z,11.90
2022-07-28T03:13:05.410Z,11.80
2022-07-28T03:15:34.421Z,11.70
2022-07-28T03:18:06.487Z,11.60
2022-07-28T03:20:35.844Z,11.60
2022-07-28T03:23:05.603Z,11.60
2022-07-28T03:25:40.366Z,11.70
2022-07-28T03:28:14.032Z,11.80
2022-07-28T03:30:48.445Z,11.70
2022-07-28T03:33:19.302Z,11.80
2022-07-28T03:35:51.731Z,11.80
2022-07-28T03:38:23.808Z,11.80
2022-07-28T03:40:55.264Z,11.80
2022-07-28T03:43:26.933Z,11.70
2022-07-28T03:45:55.981Z,11.70
2022-07-28T03:48:31.190Z,11.60
2022-07-28T03:51:00.323Z,11.60
2022-07-28T03:53:31.012Z,11.70
2022-07-28T03:55:59.797Z,11.80
2022-07-28T03:58:29.423Z,11.90
2022-07-28T04:00:58.579Z,11.90
2022-07-28T04:03:42.361Z,11.80
2022-07-28T04:06:15.323Z,11.80
2022-07-28T04:08:44.530Z,11.80
2022-07-28T04:11:13.126Z,11.60
2022-07-28T04:13:41.709Z,11.50
2022-07-28T04:16:10.239Z,11.60
2022-07-28T04:18:39.476Z,11.70
2022-07-28T04:21:08.466Z,11.80
2022-07-28T04:23:38.550Z,11.80
2022-07-28T04:26:07.394Z,11.80
2022-07-28T04:28:36.099Z,11.80
2022-07-28T04:31:04.753Z,11.90
2022-07-28T04:33:33.377Z,11.90
2022-07-28T04:36:02.264Z,11.90
2022-07-28T04:38:30.886Z,12.00
2022-07-28T04:41:00.870Z,12.10
2022-07-28T04:43:29.565Z,12.30
2022-07-28T04:45:59.008Z,12.30
2022-07-28T04:48:27.791Z,12.30
2022-07-28T04:50:57.276Z,12.30
2022-07-28T04:53:25.914Z,12.30
2022-07-28T04:55:55.688Z,12.40
2022-07-28T04:58:25.821Z,12.50
2022-07-28T05:00:55.728Z,12.50
2022-07-28T05:03:25.088Z,12.60
2022-07-28T05:05:55.126Z,12.60
2022-07-28T05:08:25.590Z,12.60
2022-07-28T05:10:56.473Z,12.60
2022-07-28T05:13:33.386Z,12.70
2022-07-28T05:16:03.667Z,12.70
2022-07-28T05:18:32.437Z,12.80
2022-07-28T05:21:01.037Z,12.90
2022-07-28T05:23:29.636Z,12.80
2022-07-28T05:25:58.446Z,12.70
2022-07-28T05:28:28.600Z,12.70
2022-07-28T05:30:57.301Z,12.70
2022-07-28T05:33:31.999Z,12.70
2022-07-28T05:36:00.868Z,12.70
2022-07-28T05:38:30.412Z,12.70
2022-07-28T05:40:59.498Z,12.80
2022-07-28T05:43:29.497Z,12.80
2022-07-28T05:45:58.190Z,12.80
2022-07-28T05:48:27.100Z,12.80
2022-07-28T05:50:55.858Z,12.90
2022-07-28T05:53:24.903Z,12.90
2022-07-28T05:56:00.005Z,13.00
2022-07-28T05:58:32.001Z,13.10
2022-07-28T06:01:02.118Z,13.10
2022-07-28T06:03:39.784Z,13.20
2022-07-28T06:06:14.731Z,13.30
2022-07-28T06:08:46.780Z,13.50
2022-07-28T06:11:21.896Z,13.60
2022-07-28T06:13:53.829Z,13.70
2022-07-28T06:16:23.459Z,13.80
2022-07-28T06:18:52.569Z,13.90
2022-07-28T06:21:23.289Z,14.00
2022-07-28T06:23:51.982Z,14.10
2022-07-28T06:26:23.381Z,14.20
2022-07-28T06:28:54.324Z,14.30
2022-07-28T06:31:23.216Z,14.40
2022-07-28T06:33:51.891Z,14.50
2022-07-28T06:36:20.686Z,14.60
2022-07-28T06:38:49.635Z,14.70
2022-07-28T06:41:18.239Z,14.80
2022-07-28T06:43:46.882Z,14.80
2022-07-28T06:46:19.389Z,14.90
2022-07-28T06:48:48.181Z,15.00
2022-07-28T06:51:19.273Z,15.00
2022-07-28T06:53:49.432Z,15.10
2022-07-28T06:56:19.750Z,15.30
2022-07-28T06:58:50.367Z,15.50
2022-07-28T07:01:20.422Z,15.70
2022-07-28T07:03:49.085Z,15.90
2022-07-28T07:06:17.741Z,16.00
2022-07-28T07:08:47.360Z,16.00
2022-07-28T07:11:16.182Z,16.10
2022-07-28T07:13:44.858Z,16.10
2022-07-28T07:16:13.503Z,16.30
2022-07-28T07:18:43.468Z,16.40
2022-07-28T07:21:12.263Z,16.70
2022-07-28T07:23:40.851Z,16.80
2022-07-28T07:26:09.606Z,16.80
2022-07-28T07:28:38.893Z,16.90
2022-07-28T07:31:07.616Z,17.00
2022-07-28T07:33:36.302Z,17.00
2022-07-28T07:36:07.002Z,17.10
2022-07-28T07:38:35.638Z,17.20
2022-07-28T07:41:04.314Z,17.30
2022-07-28T07:43:32.973Z,17.30
2022-07-28T07:46:01.697Z,17.40
2022-07-28T07:48:30.334Z,17.40
2022-07-28T07:50:58.945Z,17.40
2022-07-28T07:53:29.214Z,17.40
2022-07-28T07:55:57.808Z,17.50
2022-07-28T07:58:26.654Z,17.50
2022-07-28T08:00:55.975Z,17.60
2022-07-28T08:03:24.602Z,17.70
2022-07-28T08:05:57.504Z,17.70
2022-07-28T08:08:26.366Z,17.80
2022-07-28T08:10:56.887Z,17.80
2022-07-28T08:13:25.581Z,18.00
2022-07-28T08:15:54.489Z,18.10
2022-07-28T08:18:23.115Z,18.10
2022-07-28T08:20:51.666Z,18.10
2022-07-28T08:23:25.820Z,18.10
2022-07-28T08:25:57.064Z,18.30
2022-07-28T08:28:25.778Z,18.20
2022-07-28T08:30:54.556Z,18.10
2022-07-28T08:33:23.277Z,18.10
2022-07-28T08:35:52.002Z,18.20
2022-07-28T08:38:20.811Z,18.30
2022-07-28T08:40:51.707Z,18.50
2022-07-28T08:43:33.454Z,18.70
2022-07-28T08:46:04.359Z,18.70
2022-07-28T08:48:33.989Z,18.70
2022-07-28T08:51:05.159Z,18.60
2022-07-28T08:53:35.400Z,18.70
2022-07-28T08:56:06.398Z,18.90
2022-07-28T08:58:37.962Z,18.90
2022-07-28T09:01:08.985Z,19.00
2022-07-28T09:03:39.083Z,19.10
2022-07-28T09:06:08.647Z,19.20
2022-07-28T09:08:37.732Z,19.20
2022-07-28T09:11:08.163Z,19.40
2022-07-28T09:13:38.508Z,19.30
2022-07-28T09:16:07.770Z,19.40
2022-07-28T09:18:36.822Z,19.70
2022-07-28T09:21:05.483Z,19.90
2022-07-28T09:23:44.722Z,20.00
2022-07-28T09:26:14.056Z,20.30
2022-07-28T09:28:51.891Z,20.60
2022-07-28T09:31:21.665Z,20.60
2022-07-28T09:34:00.630Z,20.80
2022-07-28T09:36:29.952Z,20.60
2022-07-28T09:38:59.259Z,20.70
2022-07-28T09:41:27.913Z,20.80
2022-07-28T09:43:58.019Z,20.70
2022-07-28T09:46:29.821Z,20.40
2022-07-28T09:49:00.391Z,20.50
2022-07-28T09:51:32.072Z,20.70
2022-07-28T09:54:09.992Z,20.90
2022-07-28T09:56:39.167Z,21.00
2022-07-28T09:59:09.376Z,21.00
2022-07-28T10:01:53.382Z,21.20
2022-07-28T10:04:33.432Z,21.40
2022-07-28T10:07:06.842Z,21.20
2022-07-28T10:09:35.769Z,21.20
2022-07-28T10:12:18.555Z,21.30
2022-07-28T10:14:50.394Z,21.30
2022-07-28T10:17:27.214Z,21.30
2022-07-28T10:19:57.957Z,21.20
2022-07-28T10:22:29.728Z,21.30
2022-07-28T10:25:01.750Z,21.40
2022-07-28T10:27:31.267Z,21.70
2022-07-28T10:30:03.772Z,21.90
2022-07-28T10:32:35.784Z,22.00
2022-07-28T10:35:06.432Z,22.10
2022-07-28T10:37:39.159Z,22.20
2022-07-28T10:40:10.968Z,22.40
2022-07-28T10:42:41.527Z,22.50
2022-07-28T10:45:12.336Z,22.70
2022-07-28T10:47:42.446Z,22.90
2022-07-28T10:50:11.638Z,23.20
2022-07-28T10:52:53.494Z,23.70
2022-07-28T10:55:32.413Z,23.80
2022-07-28T10:58:11.252Z,23.80
2022-07-28T11:00:59.933Z,24.00
2022-07-28T11:03:43.193Z,23.70
2022-07-28T11:06:28.718Z,23.50
2022-07-28T11:08:58.977Z,23.50
2022-07-28T11:11:46.923Z,23.80
2022-07-28T11:14:39.438Z,24.00
2022-07-28T11:17:24.289Z,24.20
2022-07-28T11:20:27.257Z,24.00
2022-07-28T11:22:51.835Z,24.10
2022-07-28T11:25:22.654Z,24.00
2022-07-28T11:28:05.500Z,23.90
2022-07-28T11:30:54.766Z,23.60
2022-07-28T11:33:27.525Z,23.70
2022-07-28T11:35:58.510Z,23.70
2022-07-28T11:38:30.090Z,23.80
2022-07-28T11:40:58.831Z,24.00
2022-07-28T11:43:37.925Z,24.00
2022-07-28T11:46:24.711Z,23.90
2022-07-28T11:49:24.896Z,23.70
2022-07-28T11:52:21.236Z,23.90
2022-07-28T11:54:57.716Z,23.90
2022-07-28T11:57:29.565Z,23.70
2022-07-28T12:00:00.808Z,23.80
2022-07-28T12:02:31.790Z,23.90
2022-07-28T12:05:05.836Z,24.00
2022-07-28T12:07:38.278Z,23.90
2022-07-28T12:10:54.442Z,24.10
2022-07-28T12:13:29.128Z,24.10
2022-07-28T12:15:58.330Z,24.10
2022-07-28T12:18:27.417Z,24.20
2022-07-28T12:21:01.684Z,24.20
2022-07-28T12:23:39.217Z,24.40
2022-07-28T12:26:31.359Z,24.90
2022-07-28T12:29:02.082Z,24.70
2022-07-28T12:31:37.958Z,24.20
2022-07-28T12:34:09.618Z,24.30
2022-07-28T12:36:40.049Z,24.40
2022-07-28T12:39:13.002Z,24.20
2022-07-28T12:41:41.898Z,24.20
2022-07-28T12:44:12.087Z,23.70
2022-07-28T12:46:48.825Z,23.80
2022-07-28T12:49:23.714Z,23.70
2022-07-28T12:51:53.727Z,24.10
2022-07-28T12:54:35.741Z,24.30
2022-07-28T12:57:06.582Z,24.50
2022-07-28T12:59:36.200Z,24.70
2022-07-28T13:02:05.385Z,24.70
2022-07-28T13:04:43.013Z,24.90
2022-07-28T13:07:14.887Z,24.90
2022-07-28T13:10:00.055Z,25.00
2022-07-28T13:12:30.900Z,25.00
2022-07-28T13:15:01.721Z,24.80
2022-07-28T13:17:49.162Z,24.80
2022-07-28T13:20:18.187Z,24.60
2022-07-28T13:22:48.167Z,24.70
2022-07-28T13:25:17.230Z,24.60
2022-07-28T13:27:50.799Z,24.70
2022-07-28T13:30:23.359Z,24.80
2022-07-28T13:32:54.779Z,25.70
2022-07-28T13:35:23.758Z,25.70
2022-07-28T13:37:53.796Z,25.00
2022-07-28T13:40:22.820Z,24.50
2022-07-28T13:42:53.083Z,25.00
2022-07-28T13:45:25.024Z,25.70
2022-07-28T13:47:58.645Z,26.20
2022-07-28T13:50:27.681Z,27.00
2022-07-28T13:52:57.893Z,27.50
2022-07-28T13:55:27.694Z,27.40
2022-07-28T13:57:56.683Z,27.00
2022-07-28T14:00:26.012Z,26.30
2022-07-28T14:02:54.798Z,26.00
2022-07-28T14:05:23.449Z,25.80
2022-07-28T14:07:52.131Z,25.70
2022-07-28T14:10:26.703Z,26.10
2022-07-28T14:12:59.859Z,26.40
2022-07-28T14:15:28.636Z,26.90
2022-07-28T14:17:57.613Z,26.50
2022-07-28T14:20:26.332Z,26.80
2022-07-28T14:22:55.076Z,26.90
2022-07-28T14:25:25.750Z,26.90
2022-07-28T14:27:56.037Z,27.10
2022-07-28T14:30:28.448Z,26.60
2022-07-28T14:32:57.960Z,26.60
2022-07-28T14:35:27.049Z,26.80
2022-07-28T14:38:35.590Z,27.00
2022-07-28T14:40:45.879Z,26.60
2022-07-28T14:43:14.524Z,26.70
2022-07-28T14:45:51.270Z,27.30
2022-07-28T14:48:32.666Z,28.00
2022-07-28T14:51:01.367Z,27.70
2022-07-28T14:53:29.927Z,27.30
2022-07-28T14:55:59.996Z,26.80
2022-07-28T14:58:28.593Z,26.40
2022-07-28T15:00:57.428Z,26.30
2022-07-28T15:03:35.765Z,26.20
2022-07-28T15:06:05.440Z,25.80
2022-07-28T15:08:34.134Z,25.50
2022-07-28T15:11:04.107Z,26.00
2022-07-28T15:13:32.704Z,25.90
2022-07-28T15:16:01.503Z,26.10
2022-07-28T15:18:30.132Z,26.20
2022-07-28T15:20:58.821Z,26.60
2022-07-28T15:23:28.229Z,27.10
2022-07-28T15:25:59.572Z,27.20
2022-07-28T15:28:29.576Z,27.30
2022-07-28T15:30:58.489Z,27.10
2022-07-28T15:33:27.510Z,26.70
2022-07-28T15:36:00.510Z,26.00
2022-07-28T15:38:31.661Z,25.70
2022-07-28T15:41:00.820Z,25.80
2022-07-28T15:43:32.781Z,26.10
2022-07-28T15:46:05.903Z,25.80
2022-07-28T15:48:34.557Z,25.40
2022-07-28T15:51:03.146Z,25.20
2022-07-28T15:53:31.940Z,25.30
2022-07-28T15:56:00.734Z,25.30
2022-07-28T15:58:31.018Z,25.50
2022-07-28T16:01:01.573Z,26.00
2022-07-28T16:03:30.985Z,26.20
2022-07-28T16:05:59.606Z,26.70
2022-07-28T16:08:28.472Z,26.60
2022-07-28T16:10:59.700Z,26.60
2022-07-28T16:13:35.586Z,26.10
2022-07-28T16:16:08.349Z,25.90
2022-07-28T16:18:38.147Z,25.70
2022-07-28T16:21:08.132Z,25.40
2022-07-28T16:23:37.590Z,25.40
2022-07-28T16:26:09.181Z,25.70
2022-07-28T16:28:38.109Z,25.80
2022-07-28T16:31:08.402Z,25.40
2022-07-28T16:33:37.005Z,25.20
2022-07-28T16:36:06.510Z,24.90
2022-07-28T16:38:35.139Z,24.50
2022-07-28T16:41:03.709Z,24.10
2022-07-28T16:43:33.535Z,23.90
2022-07-28T16:46:03.168Z,23.80
2022-07-28T16:48:33.267Z,23.90
2022-07-28T16:51:02.941Z,23.90
2022-07-28T16:53:31.592Z,23.70
2022-07-28T16:56:00.379Z,23.80
2022-07-28T16:58:28.984Z,23.70
2022-07-28T17:00:57.897Z,23.60
2022-07-28T17:03:27.691Z,23.60
2022-07-28T17:05:58.071Z,23.50
2022-07-28T17:08:27.159Z,23.40
2022-07-28T17:10:56.750Z,23.30
2022-07-28T17:13:26.509Z,23.20
2022-07-28T17:15:55.783Z,23.20
2022-07-28T17:18:24.810Z,22.90
2022-07-28T17:20:53.591Z,22.90
2022-07-28T17:23:23.638Z,23.00
2022-07-28T17:28:41.308Z,22.80
2022-07-28T17:31:10.273Z,22.90
2022-07-28T17:33:38.945Z,22.60
2022-07-28T17:36:08.294Z,22.60
2022-07-28T17:38:38.310Z,22.50
2022-07-28T17:41:09.196Z,22.50
2022-07-28T17:43:42.298Z,22.50
2022-07-28T17:46:14.924Z,22.40
2022-07-28T17:48:44.332Z,22.30
2022-07-28T17:51:13.767Z,22.30
2022-07-28T17:53:45.157Z,22.20
2022-07-28T17:56:14.654Z,22.20
2022-07-28T17:58:43.455Z,22.20
2022-07-28T18:01:13.829Z,22.10
2022-07-28T18:03:57.770Z,22.00
2022-07-28T18:06:32.395Z,22.00
2022-07-28T18:09:06.332Z,21.90
2022-07-28T18:11:55.693Z,21.80
2022-07-28T18:14:26.150Z,21.80
2022-07-28T18:16:54.885Z,21.80
2022-07-28T18:19:23.647Z,21.80
2022-07-28T18:21:52.473Z,21.80
2022-07-28T18:24:22.996Z,21.80
2022-07-28T18:26:52.545Z,21.70
2022-07-28T18:29:22.066Z,21.70
2022-07-28T18:31:51.703Z,21.60
2022-07-28T18:34:24.850Z,21.60
2022-07-28T18:36:54.828Z,21.50
2022-07-28T18:39:24.931Z,21.50
2022-07-28T18:41:56.188Z,21.40
2022-07-28T18:44:24.881Z,21.30
2022-07-28T18:46:53.532Z,21.10
2022-07-28T18:49:22.290Z,21.00
2022-07-28T18:51:50.952Z,21.00
2022-07-28T18:54:27.110Z,20.80
2022-07-28T18:56:57.906Z,20.70
2022-07-28T18:59:27.082Z,20.60
2022-07-28T19:01:55.900Z,20.60
2022-07-28T19:04:24.883Z,20.50
2022-07-28T19:06:53.604Z,20.40
2022-07-28T19:09:22.261Z,20.30
2022-07-28T19:11:51.095Z,20.20
2022-07-28T19:14:21.311Z,20.20
2022-07-28T19:16:50.215Z,20.10
2022-07-28T19:19:18.832Z,20.00
2022-07-28T19:21:49.455Z,19.90
2022-07-28T19:24:18.943Z,19.80
2022-07-28T19:26:51.574Z,19.70
2022-07-28T19:29:23.058Z,19.60
2022-07-28T19:31:51.590Z,19.70
2022-07-28T19:34:20.362Z,19.60
2022-07-28T19:36:49.136Z,19.60
2022-07-28T19:39:17.884Z,19.50
2022-07-28T19:41:47.023Z,19.50
2022-07-28T19:44:16.561Z,19.50
2022-07-28T19:46:48.864Z,19.70
2022-07-28T19:49:17.953Z,19.70
2022-07-28T19:51:46.625Z,19.50
2022-07-28T19:54:16.491Z,19.40
2022-07-28T19:56:49.031Z,19.30
2022-07-28T19:59:18.193Z,19.20
2022-07-28T20:01:50.709Z,19.20
2022-07-28T20:04:20.043Z,19.20
2022-07-28T20:06:54.887Z,19.10
2022-07-28T20:09:24.234Z,19.00
2022-07-28T20:11:53.126Z,19.00
2022-07-28T20:14:21.806Z,19.00
2022-07-28T20:16:52.310Z,18.80
2022-07-28T20:19:20.971Z,18.80
2022-07-28T20:21:49.574Z,18.70
2022-07-28T20:24:19.862Z,18.70
2022-07-28T20:26:48.579Z,18.60
2022-07-28T20:29:17.265Z,18.60
2022-07-28T20:31:45.969Z,18.60
2022-07-28T20:34:16.325Z,18.50
2022-07-28T20:36:45.221Z,18.50
2022-07-28T20:39:34.756Z,18.50
2022-07-28T20:42:02.574Z,18.50
2022-07-28T20:44:31.707Z,18.40
2022-07-28T20:47:02.278Z,18.30
2022-07-28T20:49:32.549Z,18.30
2022-07-28T20:52:01.477Z,18.20
2022-07-28T20:54:30.762Z,18.20
2022-07-28T20:56:59.446Z,18.10
2022-07-28T20:59:28.301Z,18.10
2022-07-28T21:01:57.272Z,18.10
2022-07-28T21:04:27.394Z,18.10
2022-07-28T21:07:04.028Z,18.10
2022-07-28T21:09:32.953Z,18.10
2022-07-28T21:12:01.820Z,18.10
2022-07-28T21:14:32.269Z,17.90
2022-07-28T21:17:01.069Z,17.90
2022-07-28T21:19:29.830Z,17.90
2022-07-28T21:21:59.930Z,17.90
2022-07-28T21:24:29.481Z,17.80
2022-07-28T21:26:58.108Z,17.80
2022-07-28T21:29:26.009Z,17.70
2022-07-28T21:32:02.056Z,17.70
2022-07-28T21:34:35.577Z,17.70
2022-07-28T21:37:07.047Z,17.70
2022-07-28T21:39:36.841Z,17.60
2022-07-28T21:42:08.351Z,17.50
2022-07-28T21:44:38.083Z,17.50
2022-07-28T21:47:07.068Z,17.50
2022-07-28T21:49:35.877Z,17.50
2022-07-28T21:52:06.372Z,17.40
2022-07-28T21:54:34.951Z,17.30
2022-07-28T21:57:03.873Z,17.30
2022-07-28T21:59:45.142Z,17.20
2022-07-28T22:02:17.272Z,17.20
2022-07-28T22:04:46.023Z,17.10
2022-07-28T22:07:16.109Z,17.10
2022-07-28T22:09:44.855Z,17.10
2022-07-28T22:12:13.624Z,17.00
2022-07-28T22:14:42.275Z,17.10
2022-07-28T22:17:10.916Z,17.00
2022-07-28T22:19:42.311Z,17.00
2022-07-28T22:22:10.957Z,17.00
2022-07-28T22:24:41.085Z,16.90
2022-07-28T22:27:09.811Z,16.90
2022-07-28T22:29:38.824Z,16.90
2022-07-28T22:32:12.240Z,16.90
2022-07-28T22:34:40.986Z,16.80
2022-07-28T22:37:13.064Z,16.70
2022-07-28T22:39:43.370Z,16.70
2022-07-28T22:42:11.959Z,16.60
2022-07-28T22:44:40.625Z,16.60
2022-07-28T22:47:09.469Z,16.60
2022-07-28T22:49:38.656Z,16.60
2022-07-28T22:52:07.492Z,16.60
2022-07-28T22:54:39.104Z,16.60
2022-07-28T22:57:09.219Z,16.60
2022-07-28T22:59:40.003Z,16.60
2022-07-28T23:02:11.094Z,16.60
2022-07-28T23:04:40.778Z,16.50
2022-07-28T23:07:12.435Z,16.50
2022-07-28T23:09:43.863Z,16.60
2022-07-28T23:12:14.197Z,16.50
2022-07-28T23:14:42.970Z,16.50
2022-07-28T23:17:11.714Z,16.50
2022-07-28T23:19:40.400Z,16.50
2022-07-28T23:22:09.136Z,16.50
2022-07-28T23:24:37.861Z,16.50
2022-07-28T23:27:06.665Z,16.40
2022-07-28T23:29:36.708Z,16.30
2022-07-28T23:32:10.734Z,16.30
2022-07-28T23:34:42.642Z,16.30
2022-07-28T23:37:11.304Z,16.20
2022-07-28T23:39:40.024Z,16.10
2022-07-28T23:42:08.913Z,16.20
2022-07-28T23:44:39.372Z,16.10
2022-07-28T23:47:08.261Z,16.10
2022-07-28T23:49:36.951Z,16.00
2022-07-28T23:52:06.173Z,16.10
2022-07-28T23:54:34.921Z,16.10
2022-07-28T23:57:03.547Z,16.10
2022-07-28T23:59:32.751Z,16.00
